sensor_id;sensor_type;location;lat;lon;timestamp;temperature;humidity
6792;DHT22;3433;48.730;9.108;2023-02-01T00:00:59;4.40;99.90
6792;DHT22;3433;48.730;9.108;2023-02-01T00:03:46;4.40;99.90
6792;DHT22;3433;48.730;9.108;2023-02-01T00:06:33;4.40;99.90
6792;DHT22;3433;48.730;9.108;2023-02-01T00:09:21;4.40;99.90
6792;DHT22;3433;48.730;9.108;2023-02-01T00:12:08;4.30;99.90
6792;DHT22;3433;48.730;9.108;2023-02-01T00:14:57;4.40;99.90
6792;DHT22;3433;48.730;9.108;2023-02-01T00:17:44;4.30;99.90
6792;DHT22;3433;48.730;9.108;2023-02-01T00:20:31;4.30;99.90
6792;DHT22;3433;48.730;9.108;2023-02-01T00:23:18;4.30;99.90
6792;DHT22;3433;48.730;9.108;2023-02-01T00:26:07;4.30;99.90
6792;DHT22;3433;48.730;9.108;2023-02-01T00:28:54;4.40;99.90
6792;DHT22;3433;48.730;9.108;2023-02-01T00:31:43;4.30;99.90
6792;DHT22;3433;48.730;9.108;2023-02-01T00:34:30;4.30;99.90
6792;DHT22;3433;48.730;9.108;2023-02-01T00:37:18;4.30;99.90
6792;DHT22;3433;48.730;9.108;2023-02-01T00:40:06;4.30;99.90
6792;DHT22;3433;48.730;9.108;2023-02-01T00:42:53;4.30;99.90
6792;DHT22;3433;48.730;9.108;2023-02-01T00:45:40;4.20;99.90
6792;DHT22;3433;48.730;9.108;2023-02-01T00:48:29;4.20;99.90
6792;DHT22;3433;48.730;9.108;2023-02-01T00:51:19;4.20;99.90
6792;DHT22;3433;48.730;9.108;2023-02-01T00:54:07;4.20;99.90
6792;DHT22;3433;48.730;9.108;2023-02-01T00:56:54;4.30;99.90
6792;DHT22;3433;48.730;9.108;2023-02-01T00:59:41;4.40;99.90
6792;DHT22;3433;48.730;9.108;2023-02-01T01:02:28;4.40;99.90
6792;DHT22;3433;48.730;9.108;2023-02-01T01:05:17;4.40;99.90
6792;DHT22;3433;48.730;9.108;2023-02-01T01:08:04;4.40;99.90
6792;DHT22;3433;48.730;9.108;2023-02-01T01:10:51;4.40;99.90
6792;DHT22;3433;48.730;9.108;2023-02-01T01:13:39;4.40;99.90
6792;DHT22;3433;48.730;9.108;2023-02-01T01:16:28;4.20;99.90
6792;DHT22;3433;48.730;9.108;2023-02-01T01:19:15;4.40;99.90
6792;DHT22;3433;48.730;9.108;2023-02-01T01:22:04;4.40;99.90
6792;DHT22;3433;48.730;9.108;2023-02-01T01:24:51;4.20;99.90
6792;DHT22;3433;48.730;9.108;2023-02-01T01:27:38;4.30;99.90
6792;DHT22;3433;48.730;9.108;2023-02-01T01:30:26;4.30;99.90
6792;DHT22;3433;48.730;9.108;2023-02-01T01:33:13;4.30;99.90
6792;DHT22;3433;48.730;9.108;2023-02-01T01:36:00;4.30;99.90
6792;DHT22;3433;48.730;9.108;2023-02-01T01:38:50;4.40;99.90
6792;DHT22;3433;48.730;9.108;2023-02-01T01:41:37;4.40;99.90
6792;DHT22;3433;48.730;9.108;2023-02-01T01:44:56;4.30;99.90
6792;DHT22;3433;48.730;9.108;2023-02-01T01:47:47;4.30;99.90
6792;DHT22;3433;48.730;9.108;2023-02-01T01:50:37;4.30;99.90
6792;DHT22;3433;48.730;9.108;2023-02-01T01:53:33;4.40;99.90
6792;DHT22;3433;48.730;9.108;2023-02-01T01:56:22;4.40;99.90
6792;DHT22;3433;48.730;9.108;2023-02-01T01:59:09;4.40;99.90
6792;DHT22;3433;48.730;9.108;2023-02-01T02:01:57;4.30;99.90
6792;DHT22;3433;48.730;9.108;2023-02-01T02:04:44;4.20;99.90
6792;DHT22;3433;48.730;9.108;2023-02-01T02:07:36;4.30;99.90
6792;DHT22;3433;48.730;9.108;2023-02-01T02:10:24;4.30;99.90
6792;DHT22;3433;48.730;9.108;2023-02-01T02:13:35;4.30;99.90
6792;DHT22;3433;48.730;9.108;2023-02-01T02:16:44;4.30;99.90
6792;DHT22;3433;48.730;9.108;2023-02-01T02:19:55;4.30;99.90
6792;DHT22;3433;48.730;9.108;2023-02-01T02:26:26;4.40;99.90
6792;DHT22;3433;48.730;9.108;2023-02-01T02:29:48;4.40;99.90
6792;DHT22;3433;48.730;9.108;2023-02-01T02:36:00;4.40;99.90
6792;DHT22;3433;48.730;9.108;2023-02-01T02:38:56;4.50;99.90
6792;DHT22;3433;48.730;9.108;2023-02-01T02:41:51;4.40;99.90
6792;DHT22;3433;48.730;9.108;2023-02-01T02:45:03;4.50;99.90
6792;DHT22;3433;48.730;9.108;2023-02-01T02:48:17;4.40;99.90
6792;DHT22;3433;48.730;9.108;2023-02-01T02:51:09;4.40;99.90
6792;DHT22;3433;48.730;9.108;2023-02-01T02:54:18;4.40;99.90
6792;DHT22;3433;48.730;9.108;2023-02-01T02:57:26;4.50;99.90
6792;DHT22;3433;48.730;9.108;2023-02-01T03:00:33;4.50;99.90
6792;DHT22;3433;48.730;9.108;2023-02-01T03:03:38;4.50;99.90
6792;DHT22;3433;48.730;9.108;2023-02-01T03:06:45;4.50;99.90
6792;DHT22;3433;48.730;9.108;2023-02-01T03:09:34;4.50;99.90
6792;DHT22;3433;48.730;9.108;2023-02-01T03:12:23;4.40;99.90
6792;DHT22;3433;48.730;9.108;2023-02-01T03:15:42;4.40;99.90
6792;DHT22;3433;48.730;9.108;2023-02-01T03:18:33;4.50;99.90
6792;DHT22;3433;48.730;9.108;2023-02-01T03:21:25;4.50;99.90
6792;DHT22;3433;48.730;9.108;2023-02-01T03:24:18;4.50;99.90
6792;DHT22;3433;48.730;9.108;2023-02-01T03:27:13;4.50;99.90
6792;DHT22;3433;48.730;9.108;2023-02-01T03:30:05;4.60;99.90
6792;DHT22;3433;48.730;9.108;2023-02-01T03:32:56;4.60;99.90
6792;DHT22;3433;48.730;9.108;2023-02-01T03:35:54;4.60;99.90
6792;DHT22;3433;48.730;9.108;2023-02-01T03:38:50;4.60;99.90
6792;DHT22;3433;48.730;9.108;2023-02-01T03:41:42;4.60;99.90
6792;DHT22;3433;48.730;9.108;2023-02-01T03:44:33;4.60;99.90
6792;DHT22;3433;48.730;9.108;2023-02-01T03:47:23;4.60;99.90
6792;DHT22;3433;48.730;9.108;2023-02-01T03:50:15;4.60;99.90
6792;DHT22;3433;48.730;9.108;2023-02-01T03:53:06;4.60;99.90
6792;DHT22;3433;48.730;9.108;2023-02-01T03:55:54;4.60;99.90
6792;DHT22;3433;48.730;9.108;2023-02-01T03:58:43;4.50;99.90
6792;DHT22;3433;48.730;9.108;2023-02-01T04:01:44;4.60;99.90
6792;DHT22;3433;48.730;9.108;2023-02-01T04:04:31;4.60;99.90
6792;DHT22;3433;48.730;9.108;2023-02-01T04:07:19;4.70;99.90
6792;DHT22;3433;48.730;9.108;2023-02-01T04:10:07;4.60;99.90
6792;DHT22;3433;48.730;9.108;2023-02-01T04:12:55;4.60;99.90
6792;DHT22;3433;48.730;9.108;2023-02-01T04:15:43;4.60;99.90
6792;DHT22;3433;48.730;9.108;2023-02-01T04:18:31;4.70;99.90
6792;DHT22;3433;48.730;9.108;2023-02-01T04:21:18;4.70;99.90
6792;DHT22;3433;48.730;9.108;2023-02-01T04:24:06;4.70;99.90
6792;DHT22;3433;48.730;9.108;2023-02-01T04:26:54;4.80;99.90
6792;DHT22;3433;48.730;9.108;2023-02-01T04:29:42;4.80;99.90
6792;DHT22;3433;48.730;9.108;2023-02-01T04:32:32;4.80;99.90
6792;DHT22;3433;48.730;9.108;2023-02-01T04:35:19;4.80;99.90
6792;DHT22;3433;48.730;9.108;2023-02-01T04:38:07;4.70;99.90
6792;DHT22;3433;48.730;9.108;2023-02-01T04:40:55;4.80;99.90
6792;DHT22;3433;48.730;9.108;2023-02-01T04:43:42;4.80;99.90
6792;DHT22;3433;48.730;9.108;2023-02-01T04:46:29;4.80;99.90
6792;DHT22;3433;48.730;9.108;2023-02-01T04:49:18;4.80;99.90
6792;DHT22;3433;48.730;9.108;2023-02-01T04:52:07;4.90;99.90
6792;DHT22;3433;48.730;9.108;2023-02-01T04:54:54;4.80;99.90
6792;DHT22;3433;48.730;9.108;2023-02-01T04:57:43;4.90;99.90
6792;DHT22;3433;48.730;9.108;2023-02-01T05:00:30;4.90;99.90
6792;DHT22;3433;48.730;9.108;2023-02-01T05:03:17;4.90;99.90
6792;DHT22;3433;48.730;9.108;2023-02-01T05:06:06;4.80;99.90
6792;DHT22;3433;48.730;9.108;2023-02-01T05:08:53;4.90;99.90
6792;DHT22;3433;48.730;9.108;2023-02-01T05:11:41;4.80;99.90
6792;DHT22;3433;48.730;9.108;2023-02-01T05:14:46;4.80;99.90
6792;DHT22;3433;48.730;9.108;2023-02-01T05:17:33;4.80;99.90
6792;DHT22;3433;48.730;9.108;2023-02-01T05:20:20;4.80;99.90
6792;DHT22;3433;48.730;9.108;2023-02-01T05:23:09;4.90;99.90
6792;DHT22;3433;48.730;9.108;2023-02-01T05:25:58;4.90;99.90
6792;DHT22;3433;48.730;9.108;2023-02-01T05:28:46;4.90;99.90
6792;DHT22;3433;48.730;9.108;2023-02-01T05:31:33;4.90;99.90
6792;DHT22;3433;48.730;9.108;2023-02-01T05:34:20;5.00;99.90
6792;DHT22;3433;48.730;9.108;2023-02-01T05:37:08;5.00;99.90
6792;DHT22;3433;48.730;9.108;2023-02-01T05:39:56;5.00;99.90
6792;DHT22;3433;48.730;9.108;2023-02-01T05:42:43;5.00;99.90
6792;DHT22;3433;48.730;9.108;2023-02-01T05:45:31;5.00;99.90
6792;DHT22;3433;48.730;9.108;2023-02-01T05:48:18;5.00;99.90
6792;DHT22;3433;48.730;9.108;2023-02-01T05:51:05;4.90;99.90
6792;DHT22;3433;48.730;9.108;2023-02-01T05:53:53;4.90;99.90
6792;DHT22;3433;48.730;9.108;2023-02-01T05:56:41;4.90;99.90
6792;DHT22;3433;48.730;9.108;2023-02-01T05:59:28;4.90;99.90
6792;DHT22;3433;48.730;9.108;2023-02-01T06:02:16;4.90;99.90
6792;DHT22;3433;48.730;9.108;2023-02-01T06:05:04;4.90;99.90
6792;DHT22;3433;48.730;9.108;2023-02-01T06:07:51;4.90;99.90
6792;DHT22;3433;48.730;9.108;2023-02-01T06:10:38;4.80;99.90
6792;DHT22;3433;48.730;9.108;2023-02-01T06:13:27;4.90;99.90
6792;DHT22;3433;48.730;9.108;2023-02-01T06:16:14;5.00;99.90
6792;DHT22;3433;48.730;9.108;2023-02-01T06:19:03;4.90;99.90
6792;DHT22;3433;48.730;9.108;2023-02-01T06:21:50;4.80;99.90
6792;DHT22;3433;48.730;9.108;2023-02-01T06:24:37;4.80;99.90
6792;DHT22;3433;48.730;9.108;2023-02-01T06:27:24;4.60;99.90
6792;DHT22;3433;48.730;9.108;2023-02-01T06:30:13;4.60;99.90
6792;DHT22;3433;48.730;9.108;2023-02-01T06:33:00;4.60;99.90
6792;DHT22;3433;48.730;9.108;2023-02-01T06:35:48;4.60;99.90
6792;DHT22;3433;48.730;9.108;2023-02-01T06:38:35;4.60;99.90
6792;DHT22;3433;48.730;9.108;2023-02-01T06:41:22;4.60;99.90
6792;DHT22;3433;48.730;9.108;2023-02-01T06:44:11;4.60;99.90
6792;DHT22;3433;48.730;9.108;2023-02-01T06:46:59;4.70;99.90
6792;DHT22;3433;48.730;9.108;2023-02-01T06:49:46;4.70;99.90
6792;DHT22;3433;48.730;9.108;2023-02-01T06:52:34;4.80;99.90
6792;DHT22;3433;48.730;9.108;2023-02-01T06:55:22;4.80;99.90
6792;DHT22;3433;48.730;9.108;2023-02-01T06:58:09;4.80;99.90
6792;DHT22;3433;48.730;9.108;2023-02-01T07:00:56;4.90;99.90
6792;DHT22;3433;48.730;9.108;2023-02-01T07:03:48;4.70;99.90
6792;DHT22;3433;48.730;9.108;2023-02-01T07:06:36;4.70;99.90
6792;DHT22;3433;48.730;9.108;2023-02-01T07:09:23;4.90;99.90
6792;DHT22;3433;48.730;9.108;2023-02-01T07:12:11;4.90;99.90
6792;DHT22;3433;48.730;9.108;2023-02-01T07:14:58;4.90;99.90
6792;DHT22;3433;48.730;9.108;2023-02-01T07:17:47;5.00;99.90
6792;DHT22;3433;48.730;9.108;2023-02-01T07:20:36;5.00;99.90
6792;DHT22;3433;48.730;9.108;2023-02-01T07:23:23;5.00;99.90
6792;DHT22;3433;48.730;9.108;2023-02-01T07:26:12;5.00;99.90
6792;DHT22;3433;48.730;9.108;2023-02-01T07:29:00;5.00;99.90
6792;DHT22;3433;48.730;9.108;2023-02-01T07:31:47;5.10;99.90
6792;DHT22;3433;48.730;9.108;2023-02-01T07:34:34;5.00;99.90
6792;DHT22;3433;48.730;9.108;2023-02-01T07:37:23;5.00;99.90
6792;DHT22;3433;48.730;9.108;2023-02-01T07:40:12;5.00;99.90
6792;DHT22;3433;48.730;9.108;2023-02-01T07:42:59;5.10;99.90
6792;DHT22;3433;48.730;9.108;2023-02-01T07:45:50;5.00;99.90
6792;DHT22;3433;48.730;9.108;2023-02-01T07:48:38;5.00;99.90
6792;DHT22;3433;48.730;9.108;2023-02-01T07:51:25;5.10;99.90
6792;DHT22;3433;48.730;9.108;2023-02-01T07:54:14;5.10;99.90
6792;DHT22;3433;48.730;9.108;2023-02-01T07:57:01;5.10;99.90
6792;DHT22;3433;48.730;9.108;2023-02-01T07:59:48;5.10;99.90
6792;DHT22;3433;48.730;9.108;2023-02-01T08:02:53;5.10;99.90
6792;DHT22;3433;48.730;9.108;2023-02-01T08:05:40;5.20;99.90
6792;DHT22;3433;48.730;9.108;2023-02-01T08:08:27;5.20;99.90
6792;DHT22;3433;48.730;9.108;2023-02-01T08:11:16;5.20;99.90
6792;DHT22;3433;48.730;9.108;2023-02-01T08:14:04;5.20;99.90
6792;DHT22;3433;48.730;9.108;2023-02-01T08:16:51;5.30;99.90
6792;DHT22;3433;48.730;9.108;2023-02-01T08:19:39;5.30;99.90
6792;DHT22;3433;48.730;9.108;2023-02-01T08:22:26;5.30;99.90
6792;DHT22;3433;48.730;9.108;2023-02-01T08:25:18;5.30;99.90
6792;DHT22;3433;48.730;9.108;2023-02-01T08:28:06;5.30;99.90
6792;DHT22;3433;48.730;9.108;2023-02-01T08:30:54;5.30;99.90
6792;DHT22;3433;48.730;9.108;2023-02-01T08:33:42;5.30;99.90
6792;DHT22;3433;48.730;9.108;2023-02-01T08:36:30;5.30;99.90
6792;DHT22;3433;48.730;9.108;2023-02-01T08:39:17;5.30;99.90
6792;DHT22;3433;48.730;9.108;2023-02-01T08:42:05;5.30;99.90
6792;DHT22;3433;48.730;9.108;2023-02-01T08:45:11;5.40;99.90
6792;DHT22;3433;48.730;9.108;2023-02-01T08:47:58;5.60;99.90
6792;DHT22;3433;48.730;9.108;2023-02-01T08:50:45;5.60;99.90
6792;DHT22;3433;48.730;9.108;2023-02-01T08:53:33;5.60;99.90
6792;DHT22;3433;48.730;9.108;2023-02-01T08:56:21;5.70;99.90
6792;DHT22;3433;48.730;9.108;2023-02-01T08:59:08;5.80;99.90
6792;DHT22;3433;48.730;9.108;2023-02-01T09:01:57;5.80;99.90
6792;DHT22;3433;48.730;9.108;2023-02-01T09:04:44;5.80;99.90
6792;DHT22;3433;48.730;9.108;2023-02-01T09:07:32;5.80;99.90
6792;DHT22;3433;48.730;9.108;2023-02-01T09:10:19;5.90;99.90
6792;DHT22;3433;48.730;9.108;2023-02-01T09:13:07;5.90;99.90
6792;DHT22;3433;48.730;9.108;2023-02-01T09:15:54;5.90;99.90
6792;DHT22;3433;48.730;9.108;2023-02-01T09:18:42;5.90;99.90
6792;DHT22;3433;48.730;9.108;2023-02-01T09:21:30;5.80;99.90
6792;DHT22;3433;48.730;9.108;2023-02-01T09:24:17;5.90;99.90
6792;DHT22;3433;48.730;9.108;2023-02-01T09:27:04;5.90;99.90
6792;DHT22;3433;48.730;9.108;2023-02-01T09:29:51;5.90;99.90
6792;DHT22;3433;48.730;9.108;2023-02-01T09:32:39;6.00;99.90
6792;DHT22;3433;48.730;9.108;2023-02-01T09:35:27;5.90;99.90
6792;DHT22;3433;48.730;9.108;2023-02-01T09:38:14;5.90;99.90
6792;DHT22;3433;48.730;9.108;2023-02-01T09:41:07;5.90;99.90
6792;DHT22;3433;48.730;9.108;2023-02-01T09:44:06;5.90;99.90
6792;DHT22;3433;48.730;9.108;2023-02-01T09:46:55;6.00;99.90
6792;DHT22;3433;48.730;9.108;2023-02-01T09:49:50;6.00;99.90
6792;DHT22;3433;48.730;9.108;2023-02-01T09:52:44;6.10;99.90
6792;DHT22;3433;48.730;9.108;2023-02-01T09:55:36;6.20;99.90
6792;DHT22;3433;48.730;9.108;2023-02-01T09:58:29;6.20;99.90
6792;DHT22;3433;48.730;9.108;2023-02-01T10:01:21;6.30;99.90
6792;DHT22;3433;48.730;9.108;2023-02-01T10:04:12;6.40;99.90
6792;DHT22;3433;48.730;9.108;2023-02-01T10:07:10;6.50;99.90
6792;DHT22;3433;48.730;9.108;2023-02-01T10:10:02;6.50;99.90
6792;DHT22;3433;48.730;9.108;2023-02-01T10:13:17;6.50;99.90
6792;DHT22;3433;48.730;9.108;2023-02-01T10:16:16;6.50;99.90
6792;DHT22;3433;48.730;9.108;2023-02-01T10:19:32;6.60;99.90
6792;DHT22;3433;48.730;9.108;2023-02-01T10:22:33;6.60;99.90
6792;DHT22;3433;48.730;9.108;2023-02-01T10:25:26;6.60;99.90
6792;DHT22;3433;48.730;9.108;2023-02-01T10:28:16;6.50;99.90
6792;DHT22;3433;48.730;9.108;2023-02-01T10:31:05;6.60;99.90
6792;DHT22;3433;48.730;9.108;2023-02-01T10:33:57;6.50;99.90
6792;DHT22;3433;48.730;9.108;2023-02-01T10:36:52;6.70;99.90
6792;DHT22;3433;48.730;9.108;2023-02-01T10:39:40;6.60;99.90
6792;DHT22;3433;48.730;9.108;2023-02-01T10:42:29;6.60;99.90
6792;DHT22;3433;48.730;9.108;2023-02-01T10:45:19;6.60;99.90
6792;DHT22;3433;48.730;9.108;2023-02-01T10:48:08;6.60;99.90
6792;DHT22;3433;48.730;9.108;2023-02-01T10:50:58;6.60;99.90
6792;DHT22;3433;48.730;9.108;2023-02-01T10:53:50;6.70;99.90
6792;DHT22;3433;48.730;9.108;2023-02-01T10:56:40;6.60;99.90
6792;DHT22;3433;48.730;9.108;2023-02-01T10:59:31;6.50;99.90
6792;DHT22;3433;48.730;9.108;2023-02-01T11:02:26;6.50;99.90
6792;DHT22;3433;48.730;9.108;2023-02-01T11:05:16;6.60;99.90
6792;DHT22;3433;48.730;9.108;2023-02-01T11:08:04;6.60;99.90
6792;DHT22;3433;48.730;9.108;2023-02-01T11:10:58;6.70;99.90
6792;DHT22;3433;48.730;9.108;2023-02-01T11:13:54;6.80;99.90
6792;DHT22;3433;48.730;9.108;2023-02-01T11:16:47;6.80;99.90
6792;DHT22;3433;48.730;9.108;2023-02-01T11:19:35;6.70;99.90
6792;DHT22;3433;48.730;9.108;2023-02-01T11:22:25;6.70;99.90
6792;DHT22;3433;48.730;9.108;2023-02-01T11:25:15;6.70;99.90
6792;DHT22;3433;48.730;9.108;2023-02-01T11:28:03;6.80;99.90
6792;DHT22;3433;48.730;9.108;2023-02-01T11:30:53;6.70;99.90
6792;DHT22;3433;48.730;9.108;2023-02-01T11:33:49;6.70;99.90
6792;DHT22;3433;48.730;9.108;2023-02-01T11:36:37;6.60;99.90
6792;DHT22;3433;48.730;9.108;2023-02-01T11:39:26;6.60;99.90
6792;DHT22;3433;48.730;9.108;2023-02-01T11:42:15;6.70;99.90
6792;DHT22;3433;48.730;9.108;2023-02-01T11:45:19;6.70;99.90
6792;DHT22;3433;48.730;9.108;2023-02-01T11:48:09;6.70;99.90
6792;DHT22;3433;48.730;9.108;2023-02-01T11:51:08;6.60;99.90
6792;DHT22;3433;48.730;9.108;2023-02-01T11:54:10;6.70;99.90
6792;DHT22;3433;48.730;9.108;2023-02-01T11:57:12;6.70;99.90
6792;DHT22;3433;48.730;9.108;2023-02-01T12:00:26;6.80;99.90
6792;DHT22;3433;48.730;9.108;2023-02-01T12:03:43;6.70;99.90
6792;DHT22;3433;48.730;9.108;2023-02-01T12:06:44;6.60;99.90
6792;DHT22;3433;48.730;9.108;2023-02-01T12:09:46;6.60;99.90
6792;DHT22;3433;48.730;9.108;2023-02-01T12:12:41;6.60;99.90
6792;DHT22;3433;48.730;9.108;2023-02-01T12:15:40;6.70;99.90
6792;DHT22;3433;48.730;9.108;2023-02-01T12:18:57;6.70;99.90
6792;DHT22;3433;48.730;9.108;2023-02-01T12:22:07;6.70;99.90
6792;DHT22;3433;48.730;9.108;2023-02-01T12:25:20;6.70;99.90
6792;DHT22;3433;48.730;9.108;2023-02-01T12:28:29;6.70;99.90
6792;DHT22;3433;48.730;9.108;2023-02-01T12:31:27;6.60;99.90
6792;DHT22;3433;48.730;9.108;2023-02-01T12:34:38;6.60;99.90
6792;DHT22;3433;48.730;9.108;2023-02-01T12:37:41;6.60;99.90
6792;DHT22;3433;48.730;9.108;2023-02-01T12:40:43;6.50;99.90
6792;DHT22;3433;48.730;9.108;2023-02-01T12:43:38;6.50;99.90
6792;DHT22;3433;48.730;9.108;2023-02-01T12:46:30;6.50;99.90
6792;DHT22;3433;48.730;9.108;2023-02-01T12:49:23;6.50;99.90
6792;DHT22;3433;48.730;9.108;2023-02-01T12:52:18;6.40;99.90
6792;DHT22;3433;48.730;9.108;2023-02-01T12:55:16;6.50;99.90
6792;DHT22;3433;48.730;9.108;2023-02-01T12:58:12;6.40;99.90
6792;DHT22;3433;48.730;9.108;2023-02-01T13:01:03;6.50;99.90
6792;DHT22;3433;48.730;9.108;2023-02-01T13:03:59;6.40;99.90
6792;DHT22;3433;48.730;9.108;2023-02-01T13:06:55;6.40;99.90
6792;DHT22;3433;48.730;9.108;2023-02-01T13:09:49;6.50;99.90
6792;DHT22;3433;48.730;9.108;2023-02-01T13:12:42;6.50;99.90
6792;DHT22;3433;48.730;9.108;2023-02-01T13:15:36;6.50;99.90
6792;DHT22;3433;48.730;9.108;2023-02-01T13:18:28;6.40;99.90
6792;DHT22;3433;48.730;9.108;2023-02-01T13:21:24;6.50;99.90
6792;DHT22;3433;48.730;9.108;2023-02-01T13:24:24;6.40;99.90
6792;DHT22;3433;48.730;9.108;2023-02-01T13:27:14;6.40;99.90
6792;DHT22;3433;48.730;9.108;2023-02-01T13:30:10;6.30;99.90
6792;DHT22;3433;48.730;9.108;2023-02-01T13:33:13;6.40;99.90
6792;DHT22;3433;48.730;9.108;2023-02-01T13:36:18;6.40;99.90
6792;DHT22;3433;48.730;9.108;2023-02-01T13:39:35;6.50;99.90
6792;DHT22;3433;48.730;9.108;2023-02-01T13:42:28;6.40;99.90
6792;DHT22;3433;48.730;9.108;2023-02-01T13:45:20;6.50;99.90
6792;DHT22;3433;48.730;9.108;2023-02-01T13:48:20;6.50;99.90
6792;DHT22;3433;48.730;9.108;2023-02-01T13:51:08;6.40;99.90
6792;DHT22;3433;48.730;9.108;2023-02-01T13:53:56;6.50;99.90
6792;DHT22;3433;48.730;9.108;2023-02-01T13:56:43;6.50;99.90
6792;DHT22;3433;48.730;9.108;2023-02-01T13:59:49;6.50;99.90
6792;DHT22;3433;48.730;9.108;2023-02-01T14:02:50;6.50;99.90
6792;DHT22;3433;48.730;9.108;2023-02-01T14:06:14;6.50;99.90
6792;DHT22;3433;48.730;9.108;2023-02-01T14:09:14;6.50;99.90
6792;DHT22;3433;48.730;9.108;2023-02-01T14:15:28;6.40;99.90
6792;DHT22;3433;48.730;9.108;2023-02-01T14:18:54;6.40;99.90
6792;DHT22;3433;48.730;9.108;2023-02-01T14:21:48;6.40;99.90
6792;DHT22;3433;48.730;9.108;2023-02-01T14:24:37;6.40;99.90
6792;DHT22;3433;48.730;9.108;2023-02-01T14:27:26;6.50;99.90
6792;DHT22;3433;48.730;9.108;2023-02-01T14:30:15;6.50;99.90
6792;DHT22;3433;48.730;9.108;2023-02-01T14:33:14;6.50;99.90
6792;DHT22;3433;48.730;9.108;2023-02-01T14:36:08;6.50;99.90
6792;DHT22;3433;48.730;9.108;2023-02-01T14:38:56;6.50;99.90
6792;DHT22;3433;48.730;9.108;2023-02-01T14:41:44;6.40;99.90
6792;DHT22;3433;48.730;9.108;2023-02-01T14:44:35;6.40;99.90
6792;DHT22;3433;48.730;9.108;2023-02-01T14:47:33;6.50;99.90
6792;DHT22;3433;48.730;9.108;2023-02-01T14:50:29;6.40;99.90
6792;DHT22;3433;48.730;9.108;2023-02-01T14:53:24;6.50;99.90
6792;DHT22;3433;48.730;9.108;2023-02-01T14:56:16;6.50;99.90
6792;DHT22;3433;48.730;9.108;2023-02-01T14:59:08;6.50;99.90
6792;DHT22;3433;48.730;9.108;2023-02-01T15:02:00;6.40;99.90
6792;DHT22;3433;48.730;9.108;2023-02-01T15:04:54;6.40;99.90
6792;DHT22;3433;48.730;9.108;2023-02-01T15:07:41;6.50;99.90
6792;DHT22;3433;48.730;9.108;2023-02-01T15:10:31;6.50;99.90
6792;DHT22;3433;48.730;9.108;2023-02-01T15:13:22;6.40;99.90
6792;DHT22;3433;48.730;9.108;2023-02-01T15:16:11;6.50;99.90
6792;DHT22;3433;48.730;9.108;2023-02-01T15:19:10;6.50;99.90
6792;DHT22;3433;48.730;9.108;2023-02-01T15:21:59;6.40;99.90
6792;DHT22;3433;48.730;9.108;2023-02-01T15:24:52;6.50;99.90
6792;DHT22;3433;48.730;9.108;2023-02-01T15:27:41;6.50;99.90
6792;DHT22;3433;48.730;9.108;2023-02-01T15:30:30;6.50;99.90
6792;DHT22;3433;48.730;9.108;2023-02-01T15:33:18;6.60;99.90
6792;DHT22;3433;48.730;9.108;2023-02-01T15:36:10;6.50;99.90
6792;DHT22;3433;48.730;9.108;2023-02-01T15:39:28;6.40;99.90
6792;DHT22;3433;48.730;9.108;2023-02-01T15:42:17;6.40;99.90
6792;DHT22;3433;48.730;9.108;2023-02-01T15:45:16;6.40;99.90
6792;DHT22;3433;48.730;9.108;2023-02-01T15:48:04;6.50;99.90
6792;DHT22;3433;48.730;9.108;2023-02-01T15:50:51;6.40;99.90
6792;DHT22;3433;48.730;9.108;2023-02-01T15:53:48;6.40;99.90
6792;DHT22;3433;48.730;9.108;2023-02-01T15:56:37;6.30;99.90
6792;DHT22;3433;48.730;9.108;2023-02-01T15:59:29;6.30;99.90
6792;DHT22;3433;48.730;9.108;2023-02-01T16:02:33;6.30;99.90
6792;DHT22;3433;48.730;9.108;2023-02-01T16:05:31;6.30;99.90
6792;DHT22;3433;48.730;9.108;2023-02-01T16:08:22;6.30;99.90
6792;DHT22;3433;48.730;9.108;2023-02-01T16:11:25;6.30;99.90
6792;DHT22;3433;48.730;9.108;2023-02-01T16:14:13;6.40;99.90
6792;DHT22;3433;48.730;9.108;2023-02-01T16:17:01;6.30;99.90
6792;DHT22;3433;48.730;9.108;2023-02-01T16:19:50;6.30;99.90
6792;DHT22;3433;48.730;9.108;2023-02-01T16:22:37;6.30;99.90
6792;DHT22;3433;48.730;9.108;2023-02-01T16:25:24;6.40;99.90
6792;DHT22;3433;48.730;9.108;2023-02-01T16:28:12;6.30;99.90
6792;DHT22;3433;48.730;9.108;2023-02-01T16:30:59;6.30;99.90
6792;DHT22;3433;48.730;9.108;2023-02-01T16:33:48;6.40;99.90
6792;DHT22;3433;48.730;9.108;2023-02-01T16:36:37;6.40;99.90
6792;DHT22;3433;48.730;9.108;2023-02-01T16:39:24;6.50;99.90
6792;DHT22;3433;48.730;9.108;2023-02-01T16:42:14;6.70;99.90
6792;DHT22;3433;48.730;9.108;2023-02-01T16:45:02;6.80;99.90
6792;DHT22;3433;48.730;9.108;2023-02-01T16:47:52;6.80;99.90
6792;DHT22;3433;48.730;9.108;2023-02-01T16:50:48;7.00;99.90
6792;DHT22;3433;48.730;9.108;2023-02-01T16:53:37;7.10;99.90
6792;DHT22;3433;48.730;9.108;2023-02-01T16:56:28;7.20;99.90
6792;DHT22;3433;48.730;9.108;2023-02-01T16:59:16;7.20;99.90
6792;DHT22;3433;48.730;9.108;2023-02-01T17:02:03;7.20;99.90
6792;DHT22;3433;48.730;9.108;2023-02-01T17:04:50;7.00;99.90
6792;DHT22;3433;48.730;9.108;2023-02-01T17:07:38;6.90;99.90
6792;DHT22;3433;48.730;9.108;2023-02-01T17:10:28;6.80;99.90
6792;DHT22;3433;48.730;9.108;2023-02-01T17:13:16;6.70;99.90
6792;DHT22;3433;48.730;9.108;2023-02-01T17:16:05;6.60;99.90
6792;DHT22;3433;48.730;9.108;2023-02-01T17:18:57;6.50;99.90
6792;DHT22;3433;48.730;9.108;2023-02-01T17:21:47;6.40;99.90
6792;DHT22;3433;48.730;9.108;2023-02-01T17:24:36;6.40;99.90
6792;DHT22;3433;48.730;9.108;2023-02-01T17:27:25;6.30;99.90
6792;DHT22;3433;48.730;9.108;2023-02-01T17:30:13;6.30;99.90
6792;DHT22;3433;48.730;9.108;2023-02-01T17:33:01;6.20;99.90
6792;DHT22;3433;48.730;9.108;2023-02-01T17:35:48;6.20;99.90
6792;DHT22;3433;48.730;9.108;2023-02-01T17:38:35;6.20;99.90
6792;DHT22;3433;48.730;9.108;2023-02-01T17:41:22;6.20;99.90
6792;DHT22;3433;48.730;9.108;2023-02-01T17:44:11;6.20;99.90
6792;DHT22;3433;48.730;9.108;2023-02-01T17:46:58;6.10;99.90
6792;DHT22;3433;48.730;9.108;2023-02-01T17:49:45;6.20;99.90
6792;DHT22;3433;48.730;9.108;2023-02-01T17:52:36;6.20;99.90
6792;DHT22;3433;48.730;9.108;2023-02-01T17:55:24;6.20;99.90
6792;DHT22;3433;48.730;9.108;2023-02-01T17:58:14;6.20;99.90
6792;DHT22;3433;48.730;9.108;2023-02-01T18:01:03;6.10;99.90
6792;DHT22;3433;48.730;9.108;2023-02-01T18:03:50;6.10;99.90
6792;DHT22;3433;48.730;9.108;2023-02-01T18:06:38;6.00;99.90
6792;DHT22;3433;48.730;9.108;2023-02-01T18:09:25;6.10;99.90
6792;DHT22;3433;48.730;9.108;2023-02-01T18:12:16;6.00;99.90
6792;DHT22;3433;48.730;9.108;2023-02-01T18:15:14;6.00;99.90
6792;DHT22;3433;48.730;9.108;2023-02-01T18:18:04;6.00;99.90
6792;DHT22;3433;48.730;9.108;2023-02-01T18:20:51;6.00;99.90
6792;DHT22;3433;48.730;9.108;2023-02-01T18:23:39;6.00;99.90
6792;DHT22;3433;48.730;9.108;2023-02-01T18:26:26;5.90;99.90
6792;DHT22;3433;48.730;9.108;2023-02-01T18:29:13;5.90;99.90
6792;DHT22;3433;48.730;9.108;2023-02-01T18:32:01;6.00;99.90
6792;DHT22;3433;48.730;9.108;2023-02-01T18:34:50;6.00;99.90
6792;DHT22;3433;48.730;9.108;2023-02-01T18:37:37;6.00;99.90
6792;DHT22;3433;48.730;9.108;2023-02-01T18:40:26;5.90;99.90
6792;DHT22;3433;48.730;9.108;2023-02-01T18:43:13;6.00;99.90
6792;DHT22;3433;48.730;9.108;2023-02-01T18:46:00;6.10;99.90
6792;DHT22;3433;48.730;9.108;2023-02-01T18:48:48;6.00;99.90
6792;DHT22;3433;48.730;9.108;2023-02-01T18:51:36;6.10;99.90
6792;DHT22;3433;48.730;9.108;2023-02-01T18:54:24;6.00;99.90
6792;DHT22;3433;48.730;9.108;2023-02-01T18:57:11;6.10;99.90
6792;DHT22;3433;48.730;9.108;2023-02-01T19:00:01;6.00;99.90
6792;DHT22;3433;48.730;9.108;2023-02-01T19:02:48;5.90;99.90
6792;DHT22;3433;48.730;9.108;2023-02-01T19:05:36;6.00;99.90
6792;DHT22;3433;48.730;9.108;2023-02-01T19:08:24;6.00;99.90